Terminal Aerodrome Forecast
Issued by NWS Boise, ID

Home | Current Version | Previous Version | Text Only | Print | Product List | Glossary On
Versions: 1 2 3 4 5 6 7 8 9 10 11 12 13 14 15 16 17 18 19 20 21
000
FTUS45 KBOI 131720
TAFBNO
TAF
KBNO 131720Z 1318/1418 VRB03KT 6SM BR BKN100
     FM140000 VRB03KT 1SM BR OVC002
     FM141300 VRB03KT 6SM BR OVC100=

USA.gov is the U.S. government's official web portal to all federal, state and local government web resources and services.